Time;durP1;ratioP1;P1;durP2;ratioP2;P2;SDS_P1;SDS_P2;PMS_P1;PMS_P2;Temp;Humidity;BMP_temperature;BMP_pressure;BME280_temperature;BME280_humidity;BME280_pressure;Samples;Min_cycle;Max_cycle;Signal;HPM_P1;HPM_P2
2023/06/19 00:02:08;;;;;;;4.55;2.20;;;;;;;-147.53;100.00;57128.34;10450159;28;20087;-82
2023/06/19 00:07:10;;;;;;;6.35;2.60;;;;;;;-147.53;100.00;57128.34;10450821;28;20494;-81
2023/06/19 00:12:12;;;;;;;7.13;2.83;;;;;;;-147.53;100.00;57128.34;10429160;28;20510;-81
2023/06/19 00:17:16;;;;;;;7.90;2.83;;;;;;;-147.53;100.00;57128.34;10431565;28;20270;-80
2023/06/19 00:22:18;;;;;;;6.07;2.65;;;;;;;-147.53;100.00;57128.34;10447812;28;20041;-81
2023/06/19 00:27:20;;;;;;;5.25;2.45;;;;;;;-147.53;100.00;57128.34;10446155;28;20057;-81
2023/06/19 00:32:23;;;;;;;5.68;2.60;;;;;;;-147.53;100.00;57128.34;10450965;28;20053;-81
2023/06/19 00:37:25;;;;;;;5.00;2.42;;;;;;;-147.53;100.00;57128.34;10431811;28;20053;-81
2023/06/19 00:42:27;;;;;;;5.65;2.20;;;;;;;-147.53;100.00;57128.34;10443085;28;20577;-81
2023/06/19 00:47:29;;;;;;;4.82;2.20;;;;;;;-147.53;100.00;57128.34;10434689;28;20103;-81
2023/06/19 00:52:30;;;;;;;7.70;2.40;;;;;;;-147.53;100.00;57128.34;10439035;28;20057;-80
2023/06/19 00:57:33;;;;;;;6.05;2.75;;;;;;;-147.53;100.00;57128.34;10441123;28;20079;-81
2023/06/19 01:02:35;;;;;;;7.18;2.80;;;;;;;-147.53;100.00;57128.34;10437521;28;20127;-80
2023/06/19 01:07:45;;;;;;;3.55;2.00;;;;;;;-147.53;100.00;57128.34;10438818;28;20055;-82
2023/06/19 01:13:00;;;;;;;5.60;2.58;;;;;;;-147.53;100.00;57128.34;10442359;28;20079;-81
2023/06/19 01:18:03;;;;;;;5.88;2.20;;;;;;;-147.53;100.00;57128.34;10448743;28;20049;-81
2023/06/19 01:23:09;;;;;;;4.47;1.98;;;;;;;-147.53;100.00;57128.34;10447069;28;20056;-82
2023/06/19 01:28:12;;;;;;;5.05;2.50;;;;;;;-147.53;100.00;57128.34;10451787;28;20073;-81
2023/06/19 01:33:25;;;;;;;5.97;2.55;;;;;;;-147.53;100.00;57128.34;10448963;28;20045;-81
2023/06/19 01:38:29;;;;;;;6.90;2.60;;;;;;;-147.53;100.00;57128.34;10432923;28;20072;-82
2023/06/19 01:43:32;;;;;;;7.50;2.33;;;;;;;-147.53;100.00;57128.34;10450066;28;20037;-81
2023/06/19 01:48:36;;;;;;;4.18;1.95;;;;;;;-147.53;100.00;57128.34;10435556;28;20045;-81
2023/06/19 01:53:40;;;;;;;4.97;1.83;;;;;;;-147.53;100.00;57128.34;10431764;28;20047;-79
2023/06/19 01:58:43;;;;;;;6.47;2.60;;;;;;;-147.53;100.00;57128.34;10441639;28;20045;-80
2023/06/19 02:03:45;;;;;;;4.95;2.55;;;;;;;-147.53;100.00;57128.34;10429337;28;20787;-82
2023/06/19 02:08:48;;;;;;;6.28;2.60;;;;;;;-147.53;100.00;57128.34;10451669;28;20049;-82
2023/06/19 02:13:50;;;;;;;6.70;2.17;;;;;;;-147.53;100.00;57128.34;10433014;28;20561;-82
2023/06/19 02:18:51;;;;;;;4.30;1.90;;;;;;;-147.53;100.00;57128.34;10431942;28;20131;-81
2023/06/19 02:23:53;;;;;;;4.00;1.85;;;;;;;-147.53;100.00;57128.34;10429880;28;20103;-81
2023/06/19 02:28:55;;;;;;;10.15;2.47;;;;;;;-147.53;100.00;57128.34;10447657;28;20061;-81
2023/06/19 02:33:57;;;;;;;6.28;2.50;;;;;;;-147.53;100.00;57128.34;10445491;28;20726;-81
2023/06/19 02:38:59;;;;;;;4.95;2.35;;;;;;;-147.53;100.00;57128.34;10446247;28;20049;-81
2023/06/19 02:44:01;;;;;;;4.97;2.28;;;;;;;-147.53;100.00;57128.34;10431693;28;20071;-80
2023/06/19 02:49:03;;;;;;;5.95;2.50;;;;;;;-147.53;100.00;57128.34;10429017;28;20045;-81
2023/06/19 02:54:06;;;;;;;4.30;2.08;;;;;;;-147.53;100.00;57128.34;10427255;28;20049;-82
2023/06/19 02:59:08;;;;;;;4.88;2.45;;;;;;;-147.53;100.00;57128.34;10431671;28;20048;-81
2023/06/19 03:04:09;;;;;;;5.35;2.30;;;;;;;-147.53;100.00;57128.34;10430255;28;20041;-81
2023/06/19 03:09:12;;;;;;;5.38;1.85;;;;;;;-147.53;100.00;57128.34;10445762;28;20453;-81
2023/06/19 03:14:14;;;;;;;4.63;2.13;;;;;;;-147.53;100.00;57128.34;10428269;28;20040;-81
2023/06/19 03:19:16;;;;;;;5.90;2.20;;;;;;;-147.53;100.00;57128.34;10430278;28;20055;-80
2023/06/19 03:24:17;;;;;;;7.35;2.08;;;;;;;-147.53;100.00;57128.34;10443565;28;20051;-81
2023/06/19 03:29:19;;;;;;;7.00;2.47;;;;;;;-147.53;100.00;57128.34;10433559;28;20056;-81
2023/06/19 03:34:29;;;;;;;4.28;2.00;;;;;;;-147.53;100.00;57128.34;10427981;28;20065;-82
2023/06/19 03:39:33;;;;;;;4.82;2.25;;;;;;;-147.53;100.00;57128.34;10434078;28;20562;-81
2023/06/19 03:44:41;;;;;;;5.70;2.13;;;;;;;-147.53;100.00;57128.34;10427680;28;20453;-82
2023/06/19 03:49:43;;;;;;;6.93;2.30;;;;;;;-147.53;100.00;57128.34;10449495;28;20131;-81
2023/06/19 03:54:44;;;;;;;4.35;2.17;;;;;;;-147.53;100.00;57128.34;10425412;28;20154;-80
2023/06/19 03:59:47;;;;;;;6.60;2.55;;;;;;;-147.53;100.00;57128.34;10429332;28;20049;-82
2023/06/19 04:04:48;;;;;;;4.07;1.85;;;;;;;-147.53;100.00;57128.34;10426727;28;20545;-82
2023/06/19 04:09:50;;;;;;;4.68;2.10;;;;;;;-147.53;100.00;57128.34;10440425;28;20088;-81
2023/06/19 04:14:52;;;;;;;4.90;2.45;;;;;;;-147.53;100.00;57128.34;10445393;28;20068;-82
2023/06/19 04:19:54;;;;;;;5.22;2.72;;;;;;;-147.53;100.00;57128.34;10427423;28;20128;-80
2023/06/19 04:24:55;;;;;;;5.97;2.50;;;;;;;-147.53;100.00;57128.34;10460993;28;20049;-81
2023/06/19 04:29:58;;;;;;;4.97;2.45;;;;;;;-147.53;100.00;57128.34;10474062;28;20059;-80
2023/06/19 04:35:01;;;;;;;5.05;2.38;;;;;;;-147.53;100.00;57128.34;10431812;28;20074;-81
2023/06/19 04:40:03;;;;;;;11.38;2.55;;;;;;;-147.53;100.00;57128.34;10468494;28;20048;-79
2023/06/19 04:45:07;;;;;;;4.55;2.10;;;;;;;-147.53;100.00;57128.34;10439534;28;20044;-81
2023/06/19 04:50:08;;;;;;;6.53;2.25;;;;;;;-147.53;100.00;57128.34;10453402;28;20546;-80
2023/06/19 04:55:10;;;;;;;5.75;2.33;;;;;;;-147.53;100.00;57128.34;10453374;28;20124;-81
2023/06/19 05:00:14;;;;;;;5.75;2.50;;;;;;;-147.53;100.00;57128.34;10452843;28;20057;-81
2023/06/19 05:05:17;;;;;;;8.05;2.63;;;;;;;-147.53;100.00;57128.34;10449312;28;20461;-81
2023/06/19 05:10:21;;;;;;;8.90;2.85;;;;;;;-147.53;100.00;57128.34;10458451;28;20053;-81
2023/06/19 05:15:23;;;;;;;6.10;2.60;;;;;;;-147.53;100.00;57128.34;10460223;28;20775;-81
2023/06/19 05:20:25;;;;;;;6.03;2.60;;;;;;;-147.53;100.00;57128.34;10458063;28;20127;-81
2023/06/19 05:25:27;;;;;;;4.88;2.40;;;;;;;-147.53;100.00;57128.34;10455052;28;20099;-81
2023/06/19 05:30:29;;;;;;;7.03;2.38;;;;;;;-147.53;100.00;57128.34;10458961;28;20053;-81
2023/06/19 05:35:31;;;;;;;5.95;2.70;;;;;;;-147.53;100.00;57128.34;10422620;28;20091;-82
2023/06/19 05:40:33;;;;;;;5.32;2.42;;;;;;;-147.53;100.00;57128.34;10445247;28;20134;-81
2023/06/19 05:45:35;;;;;;;7.55;2.85;;;;;;;-147.53;100.00;57128.34;10434886;28;20049;-80
2023/06/19 05:50:37;;;;;;;4.32;2.28;;;;;;;-147.53;100.00;57128.34;10446444;28;20099;-82
2023/06/19 05:55:38;;;;;;;4.95;2.20;;;;;;;-147.53;100.00;57128.34;10447988;28;20044;-80
2023/06/19 06:00:40;;;;;;;6.80;3.20;;;;;;;-147.53;100.00;57128.34;10426402;28;20140;-80
2023/06/19 06:05:43;;;;;;;6.07;2.80;;;;;;;-147.53;100.00;57128.34;10450861;28;20576;-82
2023/06/19 06:10:44;;;;;;;6.28;2.85;;;;;;;-147.53;100.00;57128.34;10449742;28;20103;-80
2023/06/19 06:15:46;;;;;;;6.78;2.58;;;;;;;-147.53;100.00;57128.34;10428437;28;20064;-82
2023/06/19 06:20:48;;;;;;;4.45;2.30;;;;;;;-147.53;100.00;57128.34;10446450;28;20545;-80
2023/06/19 06:25:49;;;;;;;6.47;3.28;;;;;;;-147.53;100.00;57128.34;10427471;28;20147;-80
2023/06/19 06:30:51;;;;;;;6.18;2.63;;;;;;;-147.53;100.00;57128.34;10445698;28;20569;-80
2023/06/19 06:35:55;;;;;;;9.15;2.13;;;;;;;-147.53;100.00;57128.34;10448021;28;20060;-82
2023/06/19 06:40:56;;;;;;;5.72;2.58;;;;;;;-147.53;100.00;57128.34;10445309;28;20068;-81
2023/06/19 06:45:58;;;;;;;8.50;2.92;;;;;;;-147.53;100.00;57128.34;10448056;28;20127;-80
2023/06/19 06:51:01;;;;;;;5.38;2.50;;;;;;;-147.53;100.00;57128.34;10445095;28;20053;-81
2023/06/19 06:56:03;;;;;;;10.32;2.92;;;;;;;-147.53;100.00;57128.34;10426999;28;20534;-80
2023/06/19 07:01:05;;;;;;;6.70;2.65;;;;;;;-147.53;100.00;57128.34;10426481;28;20053;-81
2023/06/19 07:06:06;;;;;;;6.20;3.05;;;;;;;-147.53;100.00;57128.34;10433172;28;20125;-82
2023/06/19 07:11:08;;;;;;;11.20;2.88;;;;;;;-147.53;100.00;57128.34;10444220;28;20072;-81
2023/06/19 07:16:10;;;;;;;6.53;2.63;;;;;;;-147.53;100.00;57128.34;10449840;28;20041;-80
2023/06/19 07:21:14;;;;;;;5.45;2.45;;;;;;;-147.53;100.00;57128.34;10427640;28;20274;-81
2023/06/19 07:26:17;;;;;;;5.78;2.50;;;;;;;-147.53;100.00;57128.34;10433235;28;20076;-81
2023/06/19 07:31:20;;;;;;;5.53;2.50;;;;;;;-147.53;100.00;57128.34;10437401;28;20041;-79
2023/06/19 07:36:21;;;;;;;5.63;2.53;;;;;;;-147.53;100.00;57128.34;10438142;28;20049;-81
2023/06/19 07:41:23;;;;;;;5.88;2.53;;;;;;;-147.53;100.00;57128.34;10445558;28;20467;-81
2023/06/19 07:46:24;;;;;;;5.75;2.53;;;;;;;-147.53;100.00;57128.34;10445845;28;20550;-80
2023/06/19 07:51:27;;;;;;;10.85;2.75;;;;;;;-147.53;100.00;57128.34;10423973;28;20045;-82
2023/06/19 07:56:28;;;;;;;5.53;2.22;;;;;;;-147.53;100.00;57128.34;10447810;28;20095;-81
2023/06/19 08:01:30;;;;;;;5.72;2.70;;;;;;;-147.53;100.00;57128.34;10438450;28;20123;-81
2023/06/19 08:06:32;;;;;;;4.63;2.10;;;;;;;-147.53;100.00;57128.34;10441683;28;20103;-81
2023/06/19 08:11:33;;;;;;;3.10;1.60;;;;;;;-147.53;100.00;57128.34;10456379;28;20048;-82
2023/06/19 08:16:35;;;;;;;4.53;1.83;;;;;;;-147.53;100.00;57128.34;10437710;28;20033;-82
2023/06/19 08:21:37;;;;;;;4.95;1.33;;;;;;;-147.53;100.00;57128.34;10448453;28;20077;-80
2023/06/19 08:26:38;;;;;;;3.15;1.42;;;;;;;-147.53;100.00;57128.34;10447573;28;20049;-81
2023/06/19 08:31:40;;;;;;;3.75;1.40;;;;;;;-147.53;100.00;57128.34;10448211;28;20051;-83
2023/06/19 08:36:42;;;;;;;2.42;1.45;;;;;;;-147.53;100.00;57128.34;10430353;28;20040;-81
2023/06/19 08:41:44;;;;;;;2.53;1.48;;;;;;;-147.53;100.00;57128.34;10446920;28;20045;-82
2023/06/19 08:46:45;;;;;;;4.38;1.70;;;;;;;-147.53;100.00;57128.34;10447482;28;20687;-83
2023/06/19 08:51:47;;;;;;;3.15;1.40;;;;;;;-147.53;100.00;57128.34;10447858;28;20041;-82
2023/06/19 08:56:49;;;;;;;3.15;1.17;;;;;;;-147.53;100.00;57128.34;10434031;28;20076;-82
2023/06/19 09:01:52;;;;;;;3.65;1.40;;;;;;;-147.53;100.00;57128.34;10447764;28;20045;-81
2023/06/19 09:07:03;;;;;;;4.43;1.50;;;;;;;-147.53;100.00;57128.34;10442381;28;20052;-81
2023/06/19 09:12:17;;;;;;;4.80;1.88;;;;;;;-147.53;100.00;57128.34;10443550;28;20056;-81
2023/06/19 09:17:27;;;;;;;3.03;1.58;;;;;;;-147.53;100.00;57128.34;10434206;28;20061;-82
2023/06/19 09:22:34;;;;;;;2.17;1.25;;;;;;;-147.53;100.00;57128.34;10433761;28;20056;-83
2023/06/19 09:27:36;;;;;;;3.17;1.40;;;;;;;-147.53;100.00;57128.34;10446365;28;20129;-82
2023/06/19 09:32:37;;;;;;;3.35;1.55;;;;;;;-147.53;100.00;57128.34;10430629;28;20045;-81
2023/06/19 09:37:40;;;;;;;3.78;1.13;;;;;;;-147.53;100.00;57128.34;10447519;28;20037;-82
2023/06/19 09:42:43;;;;;;;2.30;1.00;;;;;;;-147.53;100.00;57128.34;10446658;28;20048;-82
2023/06/19 09:47:56;;;;;;;1.52;1.08;;;;;;;-147.53;100.00;57128.34;10433938;28;20041;-84
2023/06/19 09:53:10;;;;;;;3.78;1.42;;;;;;;-147.53;100.00;57128.34;10426906;28;20116;-81
2023/06/19 09:58:12;;;;;;;1.70;1.10;;;;;;;-147.53;100.00;57128.34;10458741;28;20550;-81
2023/06/19 10:03:14;;;;;;;2.80;1.23;;;;;;;-147.53;100.00;57128.34;10458873;28;20118;-81
2023/06/19 10:08:28;;;;;;;3.10;1.50;;;;;;;-147.53;100.00;57128.34;10430874;28;20076;-82
2023/06/19 10:13:34;;;;;;;4.15;1.48;;;;;;;-147.53;100.00;57128.34;10429620;28;20111;-81
2023/06/19 10:18:46;;;;;;;2.85;1.45;;;;;;;-147.53;100.00;57128.34;10430072;28;20044;-83
2023/06/19 10:23:56;;;;;;;2.80;1.30;;;;;;;-147.53;100.00;57128.34;10453325;28;20053;-82
2023/06/19 10:28:58;;;;;;;1.88;1.27;;;;;;;-147.53;100.00;57128.34;10430904;28;20438;-81
2023/06/19 10:33:59;;;;;;;3.42;1.52;;;;;;;-147.53;100.00;57128.34;10443207;28;20040;-82
2023/06/19 10:39:01;;;;;;;1.67;1.20;;;;;;;-147.53;100.00;57128.34;10444024;28;20073;-82
2023/06/19 10:44:10;;;;;;;1.85;1.15;;;;;;;-147.53;100.00;57128.34;10449392;28;20067;-80
2023/06/19 10:49:13;;;;;;;3.38;1.50;;;;;;;-147.53;100.00;57128.34;10429697;28;20443;-81
2023/06/19 10:54:15;;;;;;;4.25;2.00;;;;;;;-147.53;100.00;57128.34;10439317;28;20124;-82
2023/06/19 10:59:18;;;;;;;4.80;2.20;;;;;;;-147.53;100.00;57128.34;10443407;28;20482;-82
2023/06/19 11:04:20;;;;;;;4.65;2.30;;;;;;;-147.53;100.00;57128.34;10442094;28;20103;-81
2023/06/19 11:09:21;;;;;;;5.35;1.90;;;;;;;-147.53;100.00;57128.34;10448108;28;20053;-82
2023/06/19 11:14:25;;;;;;;3.42;1.83;;;;;;;-147.53;100.00;57128.34;10441889;28;20151;-82
2023/06/19 11:19:30;;;;;;;4.45;2.08;;;;;;;-147.53;100.00;57128.34;10443415;28;20045;-82
2023/06/19 11:24:32;;;;;;;3.78;1.77;;;;;;;-147.53;100.00;57128.34;10441070;28;20103;-83
2023/06/19 11:29:34;;;;;;;3.45;1.63;;;;;;;-147.53;100.00;57128.34;10441453;28;20057;-82
2023/06/19 11:34:36;;;;;;;3.97;1.67;;;;;;;-147.53;100.00;57128.34;10434173;28;20045;-82
2023/06/19 11:39:39;;;;;;;3.08;1.60;;;;;;;-147.53;100.00;57128.34;10442198;28;20149;-82
2023/06/19 11:44:54;;;;;;;3.03;1.60;;;;;;;-147.53;100.00;57128.34;10412534;28;20044;-82
2023/06/19 11:49:58;;;;;;;2.90;1.58;;;;;;;-147.53;100.00;57128.34;10454317;28;20140;-82
2023/06/19 11:55:00;;;;;;;5.00;1.80;;;;;;;-147.53;100.00;57128.34;10433889;28;20539;-83
2023/06/19 12:00:07;;;;;;;4.13;2.25;;;;;;;-147.53;100.00;57128.34;10447231;28;20045;-82
2023/06/19 12:05:14;;;;;;;4.18;2.42;;;;;;;-147.53;100.00;57128.34;10439933;28;20047;-82
2023/06/19 12:10:15;;;;;;;5.30;2.65;;;;;;;-147.53;100.00;57128.34;10441842;28;20569;-82
2023/06/19 12:15:17;;;;;;;3.58;2.00;;;;;;;-147.53;100.00;57128.34;10438641;28;20132;-80
2023/06/19 12:20:19;;;;;;;4.07;2.10;;;;;;;-147.53;100.00;57128.34;10422256;28;20666;-82
2023/06/19 12:25:20;;;;;;;5.78;1.65;;;;;;;-147.53;100.00;57128.34;10424381;28;20045;-82
2023/06/19 12:30:23;;;;;;;2.58;1.60;;;;;;;-147.53;100.00;57128.34;10441886;28;20083;-82
2023/06/19 12:35:25;;;;;;;3.17;1.65;;;;;;;-147.53;100.00;57128.34;10421213;28;20051;-83
2023/06/19 12:40:27;;;;;;;3.45;1.67;;;;;;;-147.53;100.00;57128.34;10433051;28;20089;-82
2023/06/19 12:45:29;;;;;;;4.30;1.90;;;;;;;-147.53;100.00;57128.34;10447620;28;20137;-81
2023/06/19 12:50:30;;;;;;;4.05;1.90;;;;;;;-147.53;100.00;57128.34;10451285;28;20545;-81
2023/06/19 12:55:33;;;;;;;4.07;1.60;;;;;;;-147.53;100.00;57128.34;10446552;28;20495;-82
2023/06/19 13:00:39;;;;;;;4.25;1.88;;;;;;;-147.53;100.00;57128.34;10432787;28;20441;-83
2023/06/19 13:05:41;;;;;;;3.85;1.90;;;;;;;-147.53;100.00;57128.34;10428455;28;20040;-82
2023/06/19 13:10:42;;;;;;;3.17;1.65;;;;;;;-147.53;100.00;57128.34;10447131;28;20045;-82
2023/06/19 13:15:44;;;;;;;4.15;1.92;;;;;;;-147.53;100.00;57128.34;10447598;28;20136;-80
2023/06/19 13:20:47;;;;;;;4.18;1.90;;;;;;;-147.53;100.00;57128.34;10449580;28;20059;-83
2023/06/19 13:25:49;;;;;;;6.75;2.13;;;;;;;-147.53;100.00;57128.34;10433046;28;20053;-80
2023/06/19 13:30:51;;;;;;;5.57;2.40;;;;;;;-147.53;100.00;57128.34;10444305;28;20036;-83
2023/06/19 13:35:53;;;;;;;3.47;1.90;;;;;;;-147.53;100.00;57128.34;10427339;28;20045;-81
2023/06/19 13:40:55;;;;;;;4.10;1.90;;;;;;;-147.53;100.00;57128.34;10433067;28;20127;-82
2023/06/19 13:45:56;;;;;;;2.60;1.30;;;;;;;-147.53;100.00;57128.34;10457110;28;20120;-80
2023/06/19 13:51:01;;;;;;;6.43;2.63;;;;;;;-147.53;100.00;57128.34;10458635;28;20096;-80
2023/06/19 13:56:02;;;;;;;4.70;2.33;;;;;;;-147.53;100.00;57128.34;10435067;28;20116;-83
2023/06/19 14:01:05;;;;;;;6.00;2.30;;;;;;;-147.53;100.00;57128.34;10456427;28;20835;-86
2023/06/19 14:06:07;;;;;;;6.10;2.22;;;;;;;-147.53;100.00;57128.34;10458701;28;20519;-79
2023/06/19 14:11:09;;;;;;;8.73;2.22;;;;;;;-147.53;100.00;57128.34;10455233;28;20539;-84
2023/06/19 14:16:11;;;;;;;6.35;2.40;;;;;;;-147.53;100.00;57128.34;10435389;28;20048;-81
2023/06/19 14:21:13;;;;;;;4.60;2.63;;;;;;;-147.53;100.00;57128.34;10455353;28;20041;-81
2023/06/19 14:26:15;;;;;;;3.97;1.80;;;;;;;-147.53;100.00;57128.34;10449637;28;20076;-82
2023/06/19 14:31:16;;;;;;;4.45;1.92;;;;;;;-147.53;100.00;57128.34;10453987;28;20053;-86
2023/06/19 14:36:18;;;;;;;3.40;1.80;;;;;;;-147.53;100.00;57128.34;10425366;28;20044;-84
2023/06/19 14:41:20;;;;;;;2.63;1.60;;;;;;;-147.53;100.00;57128.34;10432106;28;20076;-83
2023/06/19 14:46:21;;;;;;;3.92;1.80;;;;;;;-147.53;100.00;57128.34;10446473;28;20114;-83
2023/06/19 14:51:42;;;;;;;5.18;2.03;;;;;;;-147.53;100.00;57128.34;10424526;28;20052;-84
2023/06/19 14:56:47;;;;;;;4.90;2.00;;;;;;;-147.53;100.00;57128.34;10450186;28;20455;-84
2023/06/19 15:01:49;;;;;;;5.00;2.22;;;;;;;-147.53;100.00;57128.34;10442620;28;20695;-79
2023/06/19 15:06:51;;;;;;;3.70;2.03;;;;;;;-147.53;100.00;57128.34;10431129;28;20420;-86
2023/06/19 15:11:53;;;;;;;4.60;2.20;;;;;;;-147.53;100.00;57128.34;10421154;28;20041;-87
2023/06/19 15:16:55;;;;;;;5.78;2.28;;;;;;;-147.53;100.00;57128.34;10423385;28;20045;-87
2023/06/19 15:21:56;;;;;;;7.07;2.30;;;;;;;-147.53;100.00;57128.34;10437246;28;20232;-86
2023/06/19 15:27:00;;;;;;;7.70;2.05;;;;;;;-147.53;100.00;57128.34;10437315;28;20060;-84
2023/06/19 15:32:06;;;;;;;5.95;2.47;;;;;;;-147.53;100.00;57128.34;10427151;28;20069;-84
2023/06/19 15:37:08;;;;;;;6.10;2.65;;;;;;;-147.53;100.00;57128.34;10403610;28;20056;-84
2023/06/19 15:42:10;;;;;;;6.47;2.63;;;;;;;-147.53;100.00;57128.34;10434655;28;20051;-84
2023/06/19 15:47:11;;;;;;;5.50;2.00;;;;;;;-147.53;100.00;57128.34;10427524;28;20500;-83
2023/06/19 15:52:14;;;;;;;4.47;2.10;;;;;;;-147.53;100.00;57128.34;10414329;28;20518;-84
2023/06/19 15:57:16;;;;;;;5.80;2.25;;;;;;;-147.53;100.00;57128.34;10435198;28;20045;-81
2023/06/19 16:02:18;;;;;;;4.82;2.20;;;;;;;-147.53;100.00;57128.34;10425349;28;20056;-85
2023/06/19 16:07:20;;;;;;;5.03;2.25;;;;;;;-147.53;100.00;57128.34;10410878;28;20055;-82
2023/06/19 16:12:23;;;;;;;8.65;2.65;;;;;;;-147.53;100.00;57128.34;10441274;28;20045;-86
2023/06/19 16:17:24;;;;;;;5.85;2.28;;;;;;;-147.53;100.00;57128.34;10469112;28;20052;-83
2023/06/19 16:22:26;;;;;;;4.57;2.45;;;;;;;-147.53;100.00;57128.34;10454855;28;20049;-79
2023/06/19 16:27:28;;;;;;;6.25;2.38;;;;;;;-147.53;100.00;57128.34;10451171;28;20061;-78
2023/06/19 16:32:29;;;;;;;8.10;2.50;;;;;;;-147.53;100.00;57128.34;10439354;28;20065;-80
2023/06/19 16:37:31;;;;;;;6.75;2.60;;;;;;;-147.53;100.00;57128.34;10469239;28;20064;-83
2023/06/19 16:42:33;;;;;;;5.22;2.40;;;;;;;-147.53;100.00;57128.34;10456618;28;20109;-84
2023/06/19 16:47:34;;;;;;;4.57;2.28;;;;;;;-147.53;100.00;57128.34;10446696;28;20041;-82
2023/06/19 16:52:36;;;;;;;4.15;1.80;;;;;;;-147.53;100.00;57128.34;10467545;28;20048;-83
2023/06/19 16:57:38;;;;;;;4.50;2.20;;;;;;;-147.53;100.00;57128.34;10443117;28;20041;-82
2023/06/19 17:02:39;;;;;;;3.60;1.83;;;;;;;-147.53;100.00;57128.34;10463653;28;20080;-82
2023/06/19 17:07:41;;;;;;;8.52;2.38;;;;;;;-147.53;100.00;57128.34;10463141;28;20068;-81
2023/06/19 17:12:44;;;;;;;5.18;2.17;;;;;;;-147.53;100.00;57128.34;10459531;28;20041;-82
2023/06/19 17:17:45;;;;;;;4.40;2.20;;;;;;;-147.53;100.00;57128.34;10468604;28;20056;-82
2023/06/19 17:22:47;;;;;;;5.05;2.33;;;;;;;-147.53;100.00;57128.34;10459019;28;20419;-82
2023/06/19 17:27:58;;;;;;;4.82;2.40;;;;;;;-147.53;100.00;57128.34;10455025;28;20055;-90
2023/06/19 17:33:03;;;;;;;5.25;2.03;;;;;;;-147.53;100.00;57128.34;10429432;28;20045;-86
2023/06/19 17:38:05;;;;;;;5.55;2.15;;;;;;;-147.53;100.00;57128.34;10441673;28;20048;-86
2023/06/19 17:43:06;;;;;;;6.50;2.33;;;;;;;-147.53;100.00;57128.34;10436097;28;20044;-86
2023/06/19 17:48:08;;;;;;;4.85;2.05;;;;;;;-147.53;100.00;57128.34;10475295;28;20053;-82
2023/06/19 17:53:11;;;;;;;5.40;1.98;;;;;;;-147.53;100.00;57128.34;10422399;28;20179;-85
2023/06/19 17:58:12;;;;;;;3.95;2.00;;;;;;;-147.53;100.00;57128.34;10427071;28;20592;-86
2023/06/19 18:03:14;;;;;;;3.28;1.88;;;;;;;-147.53;100.00;57128.34;10437614;28;20041;-87
2023/06/19 18:08:16;;;;;;;3.75;1.98;;;;;;;-147.53;100.00;57128.34;10443716;28;20068;-84
2023/06/19 18:13:17;;;;;;;5.55;2.38;;;;;;;-147.53;100.00;57128.34;10443079;28;20068;-85
2023/06/19 18:18:19;;;;;;;4.45;2.00;;;;;;;-147.53;100.00;57128.34;10442636;28;20140;-85
2023/06/19 18:23:21;;;;;;;3.60;2.10;;;;;;;-147.53;100.00;57128.34;10445037;28;20136;-85
2023/06/19 18:28:23;;;;;;;4.45;1.88;;;;;;;-147.53;100.00;57128.34;10453572;28;20067;-85
2023/06/19 18:33:24;;;;;;;4.47;1.75;;;;;;;-147.53;100.00;57128.34;10458209;28;20044;-85
2023/06/19 18:38:26;;;;;;;4.75;2.00;;;;;;;-147.53;100.00;57128.34;10457448;28;20045;-85
2023/06/19 18:43:27;;;;;;;5.03;2.05;;;;;;;-147.53;100.00;57128.34;10456782;28;20101;-84
2023/06/19 18:48:29;;;;;;;5.22;2.08;;;;;;;-147.53;100.00;57128.34;10441675;28;20069;-85
2023/06/19 18:53:31;;;;;;;4.80;2.53;;;;;;;-147.53;100.00;57128.34;10455431;28;20079;-85
2023/06/19 18:58:33;;;;;;;5.20;1.98;;;;;;;-147.53;100.00;57128.34;10438617;28;20056;-84
2023/06/19 19:03:35;;;;;;;5.97;1.92;;;;;;;-147.53;100.00;57128.34;10454095;28;20064;-84
2023/06/19 19:08:36;;;;;;;5.18;1.92;;;;;;;-147.53;100.00;57128.34;10458010;28;20037;-84
2023/06/19 19:13:38;;;;;;;6.80;2.22;;;;;;;-147.53;100.00;57128.34;10456944;28;20463;-87
2023/06/19 19:18:40;;;;;;;5.05;2.00;;;;;;;-147.53;100.00;57128.34;10458348;28;20040;-84
2023/06/19 19:23:41;;;;;;;5.50;2.10;;;;;;;-147.53;100.00;57128.34;10461833;28;20049;-86
2023/06/19 19:28:43;;;;;;;5.75;2.47;;;;;;;-147.53;100.00;57128.34;10456069;28;20434;-85
2023/06/19 19:33:45;;;;;;;7.88;2.17;;;;;;;-147.53;100.00;57128.34;10470144;28;20567;-85
2023/06/19 19:38:47;;;;;;;4.07;1.95;;;;;;;-147.53;100.00;57128.34;10470044;28;20072;-84
2023/06/19 19:43:48;;;;;;;4.20;2.10;;;;;;;-147.53;100.00;57128.34;10438861;28;20075;-84
2023/06/19 19:48:50;;;;;;;5.10;2.28;;;;;;;-147.53;100.00;57128.34;10441521;28;20112;-84
2023/06/19 19:53:51;;;;;;;5.78;2.33;;;;;;;-147.53;100.00;57128.34;10466070;28;20071;-84
2023/06/19 19:58:53;;;;;;;4.60;2.08;;;;;;;-147.53;100.00;57128.34;10465935;28;20052;-84
2023/06/19 20:03:54;;;;;;;3.97;1.80;;;;;;;-147.53;100.00;57128.34;10463762;28;20053;-84
2023/06/19 20:08:56;;;;;;;5.80;2.33;;;;;;;-147.53;100.00;57128.34;10446572;28;20332;-83
2023/06/19 20:13:58;;;;;;;4.40;1.83;;;;;;;-147.53;100.00;57128.34;10461201;28;20103;-84
2023/06/19 20:19:00;;;;;;;3.72;2.00;;;;;;;-147.53;100.00;57128.34;10446796;28;20128;-84
2023/06/19 20:24:02;;;;;;;5.88;2.40;;;;;;;-147.53;100.00;57128.34;10462207;28;20073;-83
2023/06/19 20:29:04;;;;;;;10.38;2.80;;;;;;;-147.53;100.00;57128.34;10463718;28;20531;-83
2023/06/19 20:34:06;;;;;;;4.43;2.22;;;;;;;-147.53;100.00;57128.34;10442182;28;20041;-83
2023/06/19 20:39:07;;;;;;;5.53;2.70;;;;;;;-147.53;100.00;57128.34;10463076;28;20087;-84
2023/06/19 20:44:10;;;;;;;7.85;2.78;;;;;;;-147.53;100.00;57128.34;10461945;28;20068;-84
2023/06/19 20:49:11;;;;;;;8.20;3.58;;;;;;;-147.53;100.00;57128.34;10461827;28;20091;-83
2023/06/19 20:54:13;;;;;;;7.93;3.50;;;;;;;-147.53;100.00;57128.34;10461904;28;20049;-84
2023/06/19 20:59:14;;;;;;;5.25;2.95;;;;;;;-147.53;100.00;57128.34;10443597;28;20079;-84
2023/06/19 21:04:16;;;;;;;9.07;3.60;;;;;;;-147.53;100.00;57128.34;10456351;28;20410;-84
2023/06/19 21:09:19;;;;;;;10.65;3.80;;;;;;;-147.53;100.00;57128.34;10455751;28;20040;-83
2023/06/19 21:14:22;;;;;;;7.32;3.53;;;;;;;-147.53;100.00;57128.34;10454294;28;20845;-83
2023/06/19 21:19:24;;;;;;;9.68;4.38;;;;;;;-147.53;100.00;57128.34;10458136;28;20055;-83
2023/06/19 21:24:25;;;;;;;14.68;4.35;;;;;;;-147.53;100.00;57128.34;10439381;28;20041;-84
2023/06/19 21:29:27;;;;;;;9.40;4.53;;;;;;;-147.53;100.00;57128.34;10452596;28;20332;-85
2023/06/19 21:34:28;;;;;;;15.27;5.30;;;;;;;-147.53;100.00;57128.34;10449567;28;20041;-83
2023/06/19 21:39:30;;;;;;;12.68;4.40;;;;;;;-147.53;100.00;57128.34;10453393;28;20045;-83
2023/06/19 21:44:32;;;;;;;12.60;4.80;;;;;;;-147.53;100.00;57128.34;10452221;28;20084;-84
2023/06/19 21:49:33;;;;;;;11.60;4.85;;;;;;;-147.53;100.00;57128.34;10434749;28;20052;-83
2023/06/19 21:54:35;;;;;;;13.23;5.80;;;;;;;-147.53;100.00;57128.34;10452415;28;20128;-83
2023/06/19 21:59:37;;;;;;;11.25;5.32;;;;;;;-147.53;100.00;57128.34;10452120;28;20506;-84
2023/06/19 22:04:38;;;;;;;12.63;5.15;;;;;;;-147.53;100.00;57128.34;10451978;28;20147;-84
2023/06/19 22:09:41;;;;;;;11.60;4.70;;;;;;;-147.53;100.00;57128.34;10452497;28;20599;-84
2023/06/19 22:14:42;;;;;;;12.07;5.65;;;;;;;-147.53;100.00;57128.34;10450777;28;20120;-83
2023/06/19 22:19:47;;;;;;;10.68;4.80;;;;;;;-147.53;100.00;57128.34;10438173;28;20449;-83
2023/06/19 22:24:50;;;;;;;13.00;5.43;;;;;;;-147.53;100.00;57128.34;10441100;28;20144;-83
2023/06/19 22:29:52;;;;;;;12.95;5.00;;;;;;;-147.53;100.00;57128.34;10457686;28;20107;-84
2023/06/19 22:34:53;;;;;;;11.40;5.90;;;;;;;-147.53;100.00;57128.34;10434653;28;20076;-83
2023/06/19 22:39:55;;;;;;;10.57;5.63;;;;;;;-147.53;100.00;57128.34;10460617;28;20053;-83